createdAt,value
2022-08-03T00:00:26.282Z,98488.38
2022-08-03T00:02:53.023Z,98477.44
2022-08-03T00:05:19.662Z,98486.63
2022-08-03T00:07:46.092Z,98479.03
2022-08-03T00:10:15.150Z,98484.22
2022-08-03T00:12:41.582Z,98479.03
2022-08-03T00:15:11.485Z,98483.19
2022-08-03T00:17:53.241Z,98481.31
2022-08-03T00:20:23.317Z,98476.16
2022-08-03T00:22:50.019Z,98472.44
2022-08-03T00:25:17.504Z,98475.00
2022-08-03T00:27:43.939Z,98476.94
2022-08-03T00:30:10.662Z,98477.06
2022-08-03T00:32:37.133Z,98479.16
2022-08-03T00:35:09.160Z,98468.03
2022-08-03T00:37:41.300Z,98483.84
2022-08-03T00:40:10.804Z,98475.47
2022-08-03T00:42:50.925Z,98483.16
2022-08-03T00:45:18.700Z,98483.75
2022-08-03T00:47:46.074Z,98486.81
2022-08-03T00:50:13.453Z,98482.44
2022-08-03T00:52:40.578Z,98489.69
2022-08-03T00:55:07.393Z,98485.06
2022-08-03T00:57:34.088Z,98476.69
2022-08-03T01:00:00.918Z,98477.25
2022-08-03T01:02:29.025Z,98476.97
2022-08-03T01:04:56.387Z,98467.13
2022-08-03T01:07:35.798Z,98465.22
2022-08-03T01:10:08.635Z,98468.38
2022-08-03T01:12:38.024Z,98462.72
2022-08-03T01:15:16.018Z,98465.63
2022-08-03T01:18:03.347Z,98466.88
2022-08-03T01:20:34.113Z,98473.09
2022-08-03T01:23:17.969Z,98467.09
2022-08-03T01:26:02.737Z,98466.91
2022-08-03T01:28:29.344Z,98466.22
2022-08-03T01:31:01.438Z,98478.56
2022-08-03T01:33:49.938Z,98464.97
2022-08-03T01:36:22.012Z,98465.50
2022-08-03T01:38:54.064Z,98461.31
2022-08-03T01:41:25.070Z,98465.50
2022-08-03T01:44:26.828Z,98460.25
2022-08-03T01:46:47.767Z,98462.69
2022-08-03T01:49:17.343Z,98462.50
2022-08-03T01:51:57.864Z,98466.03
2022-08-03T01:54:32.762Z,98465.84
2022-08-03T01:56:59.765Z,98464.22
2022-08-03T01:59:29.129Z,98464.69
2022-08-03T02:02:28.106Z,98470.03
2022-08-03T02:04:47.037Z,98461.19
2022-08-03T02:07:16.192Z,98464.25
2022-08-03T02:09:45.285Z,98465.56
2022-08-03T02:12:14.042Z,98465.50
2022-08-03T02:14:43.485Z,98465.97
2022-08-03T02:17:11.130Z,98460.19
2022-08-03T02:19:38.751Z,98466.78
2022-08-03T02:22:08.410Z,98460.66
2022-08-03T02:24:35.050Z,98458.22
2022-08-03T02:27:03.419Z,98465.72
2022-08-03T02:29:39.262Z,98463.00
2022-08-03T02:32:10.573Z,98461.41
2022-08-03T02:34:39.116Z,98464.09
2022-08-03T02:37:07.063Z,98452.75
2022-08-03T02:39:36.720Z,98459.69
2022-08-03T02:42:05.507Z,98451.47
2022-08-03T02:44:34.317Z,98452.00
2022-08-03T02:47:03.933Z,98449.72
2022-08-03T02:49:42.633Z,98446.81
2022-08-03T02:52:19.797Z,98442.16
2022-08-03T02:54:47.682Z,98449.81
2022-08-03T02:57:16.130Z,98438.19
2022-08-03T02:59:43.808Z,98442.03
2022-08-03T03:02:11.068Z,98448.03
2022-08-03T03:04:37.890Z,98445.25
2022-08-03T03:07:12.840Z,98450.63
2022-08-03T03:09:43.130Z,98443.00
2022-08-03T03:12:12.502Z,98450.50
2022-08-03T03:14:39.828Z,98446.06
2022-08-03T03:17:11.300Z,98445.94
2022-08-03T03:19:39.770Z,98445.81
2022-08-03T03:22:08.588Z,98444.16
2022-08-03T03:24:37.117Z,98451.28
2022-08-03T03:27:04.369Z,98444.34
2022-08-03T03:29:32.702Z,98443.28
2022-08-03T03:32:05.664Z,98446.00
2022-08-03T03:34:37.167Z,98446.06
2022-08-03T03:37:03.832Z,98442.97
2022-08-03T03:39:30.578Z,98446.22
2022-08-03T03:41:57.776Z,98449.69
2022-08-03T03:44:29.071Z,98447.69
2022-08-03T03:46:57.820Z,98456.91
2022-08-03T03:49:24.846Z,98455.75
2022-08-03T03:51:55.087Z,98460.25
2022-08-03T03:54:21.649Z,98453.72
2022-08-03T03:56:48.234Z,98453.09
2022-08-03T03:59:14.753Z,98456.75
2022-08-03T04:01:41.342Z,98458.91
2022-08-03T04:04:26.284Z,98462.72
2022-08-03T04:07:11.218Z,98460.97
2022-08-03T04:09:59.804Z,98466.78
2022-08-03T04:12:38.366Z,98462.06
2022-08-03T04:15:21.883Z,98459.97
2022-08-03T04:17:50.544Z,98461.44
2022-08-03T04:20:20.091Z,98457.03
2022-08-03T04:22:49.659Z,98456.19
2022-08-03T04:25:19.410Z,98457.50
2022-08-03T04:28:28.303Z,98459.63
2022-08-03T04:30:38.721Z,98467.81
2022-08-03T04:33:06.845Z,98470.03
2022-08-03T04:36:00.891Z,98464.81
2022-08-03T04:38:24.854Z,98475.06
2022-08-03T04:40:53.129Z,98480.09
2022-08-03T04:43:22.180Z,98468.41
2022-08-03T04:45:50.965Z,98466.44
2022-08-03T04:48:18.378Z,98477.44
2022-08-03T04:50:44.885Z,98471.28
2022-08-03T04:53:11.456Z,98469.91
2022-08-03T04:55:37.938Z,98474.63
2022-08-03T04:58:04.779Z,98474.75
2022-08-03T05:00:31.329Z,98474.06
2022-08-03T05:02:57.866Z,98466.19
2022-08-03T05:05:24.388Z,98465.94
2022-08-03T05:07:51.182Z,98472.00
2022-08-03T05:10:18.210Z,98474.69
2022-08-03T05:12:46.126Z,98478.59
2022-08-03T05:15:13.164Z,98476.22
2022-08-03T05:17:39.711Z,98480.09
2022-08-03T05:20:06.827Z,98479.69
2022-08-03T05:22:33.370Z,98480.19
2022-08-03T05:25:01.513Z,98482.50
2022-08-03T05:27:27.946Z,98480.69
2022-08-03T05:29:54.450Z,98483.66
2022-08-03T05:32:21.383Z,98483.09
2022-08-03T05:34:47.987Z,98482.44
2022-08-03T05:37:14.479Z,98496.53
2022-08-03T05:39:40.982Z,98480.63
2022-08-03T05:42:07.528Z,98494.97
2022-08-03T05:44:34.155Z,98487.59
2022-08-03T05:47:00.597Z,98491.81
2022-08-03T05:49:27.146Z,98491.09
2022-08-03T05:52:08.497Z,98485.63
2022-08-03T05:54:55.476Z,98488.88
2022-08-03T05:57:24.795Z,98491.31
2022-08-03T05:59:54.668Z,98494.50
2022-08-03T06:02:28.368Z,98484.94
2022-08-03T06:04:54.804Z,98478.78
2022-08-03T06:07:21.281Z,98486.91
2022-08-03T06:10:35.079Z,98478.72
2022-08-03T06:12:37.236Z,98479.88
2022-08-03T06:15:04.891Z,98482.53
2022-08-03T06:17:37.126Z,98479.47
2022-08-03T06:20:04.395Z,98481.09
2022-08-03T06:22:30.844Z,98476.63
2022-08-03T06:24:58.637Z,98476.00
2022-08-03T06:27:37.385Z,98475.50
2022-08-03T06:30:05.118Z,98466.00
2022-08-03T06:32:31.625Z,98469.91
2022-08-03T06:34:58.059Z,98464.88
2022-08-03T06:37:24.618Z,98470.38
2022-08-03T06:39:51.060Z,98466.88
2022-08-03T06:42:17.716Z,98473.94
2022-08-03T06:44:44.531Z,98476.78
2022-08-03T06:47:11.363Z,98478.56
2022-08-03T06:49:38.248Z,98466.91
2022-08-03T06:52:07.045Z,98471.53
2022-08-03T06:54:33.817Z,98469.84
2022-08-03T06:57:00.350Z,98464.44
2022-08-03T07:00:07.774Z,98471.69
2022-08-03T07:02:18.933Z,98467.88
2022-08-03T07:04:46.316Z,98466.09
2022-08-03T07:07:12.752Z,98468.56
2022-08-03T07:09:39.197Z,98466.84
2022-08-03T07:12:08.384Z,98462.88
2022-08-03T07:14:35.053Z,98477.81
2022-08-03T07:17:01.648Z,98471.00
2022-08-03T07:19:31.312Z,98463.66
2022-08-03T07:22:02.251Z,98471.34
2022-08-03T07:24:30.925Z,98463.50
2022-08-03T07:26:57.521Z,98465.31
2022-08-03T07:29:23.971Z,98461.81
2022-08-03T07:31:50.441Z,98467.78
2022-08-03T07:34:17.055Z,98470.16
2022-08-03T07:36:43.522Z,98467.72
2022-08-03T07:39:17.528Z,98473.22
2022-08-03T07:41:44.697Z,98473.28
2022-08-03T07:44:11.146Z,98474.78
2022-08-03T07:46:37.649Z,98472.00
2022-08-03T07:49:05.081Z,98467.72
2022-08-03T07:51:31.589Z,98466.63
2022-08-03T07:53:58.102Z,98462.63
2022-08-03T07:56:28.184Z,98463.31
2022-08-03T07:58:54.990Z,98456.16
2022-08-03T08:01:22.418Z,98461.16
2022-08-03T08:03:52.706Z,98464.97
2022-08-03T08:06:20.842Z,98450.28
2022-08-03T08:08:47.637Z,98457.88
2022-08-03T08:11:14.234Z,98454.41
2022-08-03T08:13:40.751Z,98446.28
2022-08-03T08:16:07.386Z,98447.25
2022-08-03T08:18:34.494Z,98446.25
2022-08-03T08:21:03.190Z,98451.22
2022-08-03T08:23:42.479Z,98447.13
2022-08-03T08:26:10.977Z,98439.91
2022-08-03T08:28:37.439Z,98446.91
2022-08-03T08:31:04.018Z,98451.00
2022-08-03T08:33:54.348Z,98448.41
2022-08-03T08:36:17.620Z,98451.34
2022-08-03T08:38:45.310Z,98452.28
2022-08-03T08:41:13.315Z,98449.41
2022-08-03T08:43:39.777Z,98443.84
2022-08-03T08:46:10.045Z,98440.59
2022-08-03T08:48:43.887Z,98436.63
2022-08-03T08:51:12.032Z,98432.88
2022-08-03T08:53:43.105Z,98441.09
2022-08-03T08:56:16.171Z,98432.44
2022-08-03T08:58:49.104Z,98435.41
2022-08-03T09:01:19.240Z,98439.31
2022-08-03T09:03:47.149Z,98432.41
2022-08-03T09:06:15.008Z,98435.47
2022-08-03T09:08:41.497Z,98432.06
2022-08-03T09:11:08.197Z,98433.31
2022-08-03T09:13:35.408Z,98429.84
2022-08-03T09:16:14.748Z,98425.97
2022-08-03T09:18:46.449Z,98432.25
2022-08-03T09:21:30.658Z,98429.56
2022-08-03T09:24:04.275Z,98437.56
2022-08-03T09:26:34.479Z,98433.78
2022-08-03T09:29:09.708Z,98433.91
2022-08-03T09:31:44.194Z,98432.50
2022-08-03T09:34:14.239Z,98429.53
2022-08-03T09:36:48.863Z,98427.69
2022-08-03T09:39:40.695Z,98425.19
2022-08-03T09:42:18.721Z,98422.97
2022-08-03T09:44:52.180Z,98411.19
2022-08-03T09:47:30.309Z,98416.03
2022-08-03T09:50:07.178Z,98412.38
2022-08-03T09:52:49.483Z,98402.97
2022-08-03T09:56:32.729Z,98407.97
2022-08-03T09:58:09.167Z,98410.31
2022-08-03T10:00:54.044Z,98404.31
2022-08-03T10:03:20.817Z,98398.16
2022-08-03T10:05:47.325Z,98405.69
2022-08-03T10:08:18.623Z,98402.78
2022-08-03T10:10:46.864Z,98394.78
2022-08-03T10:13:14.409Z,98403.84
2022-08-03T10:16:23.955Z,98398.38
2022-08-03T10:18:27.833Z,98397.31
2022-08-03T10:21:03.237Z,98379.88
2022-08-03T10:23:34.628Z,98381.03
2022-08-03T10:26:03.769Z,98382.09
2022-08-03T10:28:44.991Z,98378.72
2022-08-03T10:31:13.829Z,98373.75
2022-08-03T10:33:51.060Z,98375.56
2022-08-03T10:36:20.842Z,98365.13
2022-08-03T10:38:52.769Z,98367.63
2022-08-03T10:41:25.998Z,98364.66
2022-08-03T10:44:15.705Z,98362.13
2022-08-03T10:46:45.122Z,98361.13
2022-08-03T10:49:16.158Z,98352.03
2022-08-03T10:51:45.089Z,98355.72
2022-08-03T10:54:58.541Z,98351.16
2022-08-03T10:57:49.694Z,98357.19
2022-08-03T11:00:27.346Z,98350.03
2022-08-03T11:03:14.735Z,98340.06
2022-08-03T11:05:43.225Z,98345.16
2022-08-03T11:08:24.669Z,98342.13
2022-08-03T11:10:57.526Z,98343.31
2022-08-03T11:13:25.875Z,98344.44
2022-08-03T11:16:01.579Z,98335.94
2022-08-03T11:18:29.281Z,98332.13
2022-08-03T11:20:58.214Z,98335.56
2022-08-03T11:24:02.934Z,98323.03
2022-08-03T11:26:31.081Z,98321.97
2022-08-03T11:29:27.941Z,98333.72
2022-08-03T11:31:54.418Z,98326.84
2022-08-03T11:34:20.936Z,98329.19
2022-08-03T11:37:21.364Z,98330.25
2022-08-03T11:39:50.471Z,98326.38
2022-08-03T11:42:26.988Z,98330.13
2022-08-03T11:44:55.311Z,98322.50
2022-08-03T11:47:23.246Z,98324.41
2022-08-03T11:49:51.422Z,98317.88
2022-08-03T11:52:19.516Z,98320.06
2022-08-03T11:54:56.521Z,98314.19
2022-08-03T11:59:01.305Z,98313.97
2022-08-03T12:00:21.581Z,98304.38
2022-08-03T12:02:58.890Z,98304.91
2022-08-03T12:05:51.880Z,98308.31
2022-08-03T12:08:40.139Z,98297.06
2022-08-03T12:11:09.093Z,98301.50
2022-08-03T12:14:08.838Z,98297.34
2022-08-03T12:16:34.021Z,98297.38
2022-08-03T12:19:02.409Z,98298.91
2022-08-03T12:21:29.849Z,98296.28
2022-08-03T12:23:59.993Z,98290.31
2022-08-03T12:26:27.407Z,98292.41
2022-08-03T12:28:53.913Z,98303.34
2022-08-03T12:31:20.544Z,98291.28
2022-08-03T12:34:16.639Z,98290.13
2022-08-03T12:36:56.040Z,98276.91
2022-08-03T12:39:30.795Z,98287.00
2022-08-03T12:41:57.692Z,98276.69
2022-08-03T12:44:31.859Z,98274.75
2022-08-03T12:46:59.276Z,98274.88
2022-08-03T12:49:26.377Z,98275.13
2022-08-03T12:51:52.782Z,98279.94
2022-08-03T12:54:24.512Z,98282.34
2022-08-03T12:57:08.083Z,98279.59
2022-08-03T12:59:41.316Z,98274.00
2022-08-03T13:02:28.700Z,98266.53
2022-08-03T13:04:55.655Z,98265.41
2022-08-03T13:07:23.086Z,98264.25
2022-08-03T13:09:53.145Z,98265.38
2022-08-03T13:12:22.551Z,98271.78
2022-08-03T13:14:53.077Z,98264.16
2022-08-03T13:17:20.129Z,98270.97
2022-08-03T13:19:48.136Z,98274.63
2022-08-03T13:22:36.173Z,98269.47
2022-08-03T13:25:03.128Z,98259.84
2022-08-03T13:28:03.978Z,98260.69
2022-08-03T13:30:27.558Z,98256.19
2022-08-03T13:32:58.603Z,98255.66
2022-08-03T13:35:25.429Z,98256.84
2022-08-03T13:37:51.932Z,98251.84
2022-08-03T13:40:18.545Z,98252.88
2022-08-03T13:42:50.321Z,98249.66
2022-08-03T13:45:16.836Z,98254.28
2022-08-03T13:47:43.311Z,98254.00
2022-08-03T13:50:09.797Z,98241.31
2022-08-03T13:52:36.402Z,98252.00
2022-08-03T13:55:05.735Z,98253.94
2022-08-03T13:58:05.035Z,98247.63
2022-08-03T14:00:27.117Z,98249.31
2022-08-03T14:03:02.926Z,98242.09
2022-08-03T14:05:31.890Z,98238.66
2022-08-03T14:08:03.849Z,98234.78
2022-08-03T14:10:31.832Z,98234.72
2022-08-03T14:13:00.295Z,98233.38
2022-08-03T14:15:28.476Z,98235.09
2022-08-03T14:17:55.817Z,98232.66
2022-08-03T14:20:36.870Z,98234.44
2022-08-03T14:23:06.805Z,98223.22
2022-08-03T14:25:49.865Z,98231.06
2022-08-03T14:28:17.883Z,98225.38
2022-08-03T14:30:44.459Z,98220.03
2022-08-03T14:33:10.901Z,98220.53
2022-08-03T14:35:37.470Z,98216.44
2022-08-03T14:38:03.912Z,98209.34
2022-08-03T14:40:30.349Z,98208.53
2022-08-03T14:42:57.228Z,98208.84
2022-08-03T14:45:23.798Z,98204.72
2022-08-03T14:50:32.449Z,98206.63
2022-08-03T14:50:43.295Z,98203.16
2022-08-03T14:53:12.337Z,98191.03
2022-08-03T14:55:49.863Z,98200.84
2022-08-03T14:58:19.766Z,98196.22
2022-08-03T15:00:47.371Z,98190.50
2022-08-03T15:03:16.719Z,98200.56
2022-08-03T15:05:43.648Z,98191.91
2022-08-03T15:08:10.104Z,98190.66
2022-08-03T15:10:43.821Z,98191.38
2022-08-03T15:13:11.502Z,98190.44
2022-08-03T15:15:37.994Z,98182.69
2022-08-03T15:18:04.750Z,98185.03
2022-08-03T15:20:43.197Z,98183.56
2022-08-03T15:23:13.424Z,98163.19
2022-08-03T15:26:04.144Z,98167.97
2022-08-03T15:28:26.610Z,98168.41
2022-08-03T15:30:53.228Z,98171.16
2022-08-03T15:33:20.220Z,98168.63
2022-08-03T15:35:47.534Z,98165.75
2022-08-03T15:38:14.128Z,98163.63
2022-08-03T15:40:40.762Z,98165.94
2022-08-03T15:43:07.429Z,98160.06
2022-08-03T15:45:36.337Z,98155.84
2022-08-03T15:48:05.746Z,98154.53
2022-08-03T15:50:32.262Z,98157.44
2022-08-03T15:52:58.846Z,98150.03
2022-08-03T15:55:25.506Z,98150.34
2022-08-03T15:59:09.623Z,98146.59
2022-08-03T16:00:39.209Z,98140.59
2022-08-03T16:03:06.030Z,98144.59
2022-08-03T16:05:32.496Z,98149.31
2022-08-03T16:08:03.786Z,98148.84
2022-08-03T16:10:31.628Z,98142.03
2022-08-03T16:13:00.915Z,98132.97
2022-08-03T16:15:27.682Z,98136.09
2022-08-03T16:17:54.302Z,98144.38
2022-08-03T16:20:31.152Z,98138.69
2022-08-03T16:23:10.589Z,98132.06
2022-08-03T16:25:39.827Z,98128.28
2022-08-03T16:28:13.172Z,98133.22
2022-08-03T16:30:42.564Z,98133.38
2022-08-03T16:33:09.550Z,98131.59
2022-08-03T16:35:36.125Z,98129.22
2022-08-03T16:38:07.846Z,98131.13
2022-08-03T16:40:36.803Z,98134.28
2022-08-03T16:43:17.966Z,98130.66
2022-08-03T16:45:45.683Z,98131.94
2022-08-03T16:48:12.154Z,98122.66
2022-08-03T16:50:38.804Z,98129.00
2022-08-03T16:53:09.816Z,98124.78
2022-08-03T16:55:48.570Z,98127.97
2022-08-03T16:58:19.511Z,98132.38
2022-08-03T17:01:01.684Z,98139.13
2022-08-03T17:03:57.052Z,98130.44
2022-08-03T17:06:24.795Z,98127.50
2022-08-03T17:09:00.605Z,98131.81
2022-08-03T17:11:27.116Z,98122.63
2022-08-03T17:13:56.421Z,98131.16
2022-08-03T17:16:22.938Z,98120.94
2022-08-03T17:18:52.961Z,98126.63
2022-08-03T17:21:26.886Z,98128.56
2022-08-03T17:24:12.125Z,98115.34
2022-08-03T17:26:44.584Z,98116.44
2022-08-03T17:29:13.358Z,98121.59
2022-08-03T17:31:48.953Z,98114.53
2022-08-03T17:34:17.278Z,98114.53
2022-08-03T17:39:56.846Z,98120.19
2022-08-03T17:42:30.214Z,98125.38
2022-08-03T17:45:01.993Z,98124.59
2022-08-03T17:50:24.210Z,98120.38
2022-08-03T17:53:07.020Z,98125.91
2022-08-03T17:55:54.915Z,98130.38
2022-08-03T17:58:45.724Z,98123.28
2022-08-03T18:02:00.501Z,98130.53
2022-08-03T18:04:41.710Z,98133.34
2022-08-03T18:07:12.518Z,98133.34
2022-08-03T18:10:06.197Z,98134.97
2022-08-03T18:12:40.170Z,98129.03
2022-08-03T18:15:13.302Z,98138.22
2022-08-03T18:17:55.683Z,98137.84
2022-08-03T18:20:32.936Z,98139.09
2022-08-03T18:23:04.921Z,98135.13
2022-08-03T18:25:45.543Z,98145.09
2022-08-03T18:28:16.571Z,98139.56
2022-08-03T18:30:54.144Z,98144.38
2022-08-03T18:34:17.195Z,98139.19
2022-08-03T18:36:17.710Z,98136.81
2022-08-03T18:38:48.016Z,98140.00
2022-08-03T18:41:21.983Z,98136.44
2022-08-03T18:44:08.566Z,98140.81
2022-08-03T18:47:16.467Z,98137.63
2022-08-03T18:49:57.352Z,98142.78
2022-08-03T18:52:40.184Z,98144.00
2022-08-03T18:55:20.655Z,98141.97
2022-08-03T18:57:59.607Z,98139.97
2022-08-03T19:00:34.239Z,98151.09
2022-08-03T19:03:22.536Z,98148.72
2022-08-03T19:06:02.660Z,98151.06
2022-08-03T19:08:37.258Z,98147.88
2022-08-03T19:11:07.701Z,98153.41
2022-08-03T19:13:44.405Z,98146.19
2022-08-03T19:16:23.531Z,98151.72
2022-08-03T19:18:53.850Z,98154.50
2022-08-03T19:21:22.338Z,98160.44
2022-08-03T19:23:49.206Z,98158.84
2022-08-03T19:26:30.856Z,98157.94
2022-08-03T19:28:58.611Z,98155.78
2022-08-03T19:31:31.149Z,98166.78
2022-08-03T19:34:02.583Z,98167.09
2022-08-03T19:36:29.549Z,98171.53
2022-08-03T19:38:57.531Z,98165.97
2022-08-03T19:41:42.262Z,98168.72
2022-08-03T19:44:20.250Z,98176.56
2022-08-03T19:46:53.431Z,98174.03
2022-08-03T19:49:25.985Z,98175.13
2022-08-03T19:52:14.812Z,98177.06
2022-08-03T19:54:53.989Z,98181.66
2022-08-03T19:57:24.865Z,98179.44
2022-08-03T19:59:53.312Z,98183.69
2022-08-03T20:02:26.222Z,98187.63
2022-08-03T20:04:57.168Z,98185.34
2022-08-03T20:07:25.885Z,98182.09
2022-08-03T20:09:54.535Z,98186.84
2022-08-03T20:12:27.539Z,98191.59
2022-08-03T20:14:57.341Z,98193.06
2022-08-03T20:17:57.103Z,98185.84
2022-08-03T20:20:10.745Z,98187.06
2022-08-03T20:22:43.086Z,98193.63
2022-08-03T20:25:13.070Z,98185.19
2022-08-03T20:28:07.167Z,98189.22
2022-08-03T20:30:34.645Z,98188.69
2022-08-03T20:33:01.637Z,98199.00
2022-08-03T20:35:28.742Z,98191.34
2022-08-03T20:37:55.430Z,98189.75
2022-08-03T20:40:22.916Z,98190.09
2022-08-03T20:42:55.149Z,98183.69
2022-08-03T20:45:59.416Z,98186.22
2022-08-03T20:48:10.094Z,98185.03
2022-08-03T20:50:38.353Z,98188.19
2022-08-03T20:53:07.035Z,98188.09
2022-08-03T20:55:47.499Z,98181.38
2022-08-03T20:58:20.772Z,98180.91
2022-08-03T21:00:51.616Z,98179.50
2022-08-03T21:03:18.645Z,98190.47
2022-08-03T21:05:51.813Z,98178.81
2022-08-03T21:08:22.533Z,98188.53
2022-08-03T21:10:51.081Z,98185.78
2022-08-03T21:13:04.438Z,98127.09
2022-08-03T21:13:27.144Z,98193.53
2022-08-03T21:16:14.309Z,98186.41
2022-08-03T21:18:48.909Z,98181.63
2022-08-03T21:21:18.944Z,98182.28
2022-08-03T21:23:49.927Z,98176.56
2022-08-03T21:26:21.821Z,98178.44
2022-08-03T21:28:49.809Z,98178.03
2022-08-03T21:31:24.723Z,98172.50
2022-08-03T21:34:04.959Z,98176.72
2022-08-03T21:36:34.410Z,98183.41
2022-08-03T21:39:02.403Z,98179.34
2022-08-03T21:41:31.304Z,98182.72
2022-08-03T21:43:58.905Z,98190.44
2022-08-03T21:46:29.579Z,98185.81
2022-08-03T21:49:52.148Z,98179.91
2022-08-03T21:51:50.389Z,98182.16
2022-08-03T21:54:20.046Z,98182.59
2022-08-03T21:56:50.632Z,98181.66
2022-08-03T21:59:19.044Z,98184.06
2022-08-03T22:01:49.093Z,98186.81
2022-08-03T22:04:49.992Z,98191.59
2022-08-03T22:07:07.766Z,98189.06
2022-08-03T22:09:35.326Z,98188.31
2022-08-03T22:12:01.849Z,98197.19
2022-08-03T22:14:29.081Z,98194.00
2022-08-03T22:16:56.290Z,98195.72
2022-08-03T22:19:22.758Z,98203.09
2022-08-03T22:21:49.846Z,98202.00
2022-08-03T22:24:19.706Z,98196.78
2022-08-03T22:27:09.838Z,98202.91
2022-08-03T22:29:39.722Z,98203.28
2022-08-03T22:32:06.877Z,98199.53
2022-08-03T22:34:33.661Z,98202.66
2022-08-03T22:37:03.650Z,98200.09
2022-08-03T22:39:31.731Z,98205.84
2022-08-03T22:41:59.015Z,98205.50
2022-08-03T22:44:27.484Z,98206.47
2022-08-03T22:46:54.389Z,98214.47
2022-08-03T22:49:22.153Z,98214.03
2022-08-03T22:51:51.886Z,98221.22
2022-08-03T22:54:19.003Z,98213.25
2022-08-03T22:56:50.255Z,98225.97
2022-08-03T22:59:40.145Z,98227.81
2022-08-03T23:02:19.997Z,98228.50
2022-08-03T23:05:01.907Z,98224.34
2022-08-03T23:07:39.207Z,98216.84
2022-08-03T23:10:11.370Z,98212.31
2022-08-03T23:12:39.741Z,98217.91
2022-08-03T23:15:12.747Z,98219.22
2022-08-03T23:17:58.152Z,98221.28
2022-08-03T23:20:26.437Z,98222.44
2022-08-03T23:22:54.648Z,98220.94
2022-08-03T23:25:22.045Z,98217.53
2022-08-03T23:28:05.559Z,98219.22
2022-08-03T23:30:34.568Z,98210.25
2022-08-03T23:33:02.878Z,98211.59
2022-08-03T23:36:22.582Z,98217.00
2022-08-03T23:38:36.636Z,98217.09
2022-08-03T23:41:04.705Z,98221.34
2022-08-03T23:43:44.682Z,98221.88
2022-08-03T23:46:19.704Z,98225.81
2022-08-03T23:48:46.266Z,98225.16
2022-08-03T23:51:54.323Z,98225.88
2022-08-03T23:54:29.489Z,98226.47
2022-08-03T23:57:13.179Z,98224.13
2022-08-03T23:59:56.671Z,98224.28
